الصفحة الرئيسية
METAR-TAF:

METAR-TAF

مطار :

مطار وجدة أنجاد

وجدة, المغرب

دائرة عرض: 34-47N, خط طول: 001-56W, ارتفاع: 468 متر

مراقبة الطقس الحالي

تاريخ ووقت الإصدار 28 دقيقة قبل الساعة 13:30UTC
ريح 8 عقدة من الجنوب/الجنوب الغربي, الاتجاه يتراوح بين الجنوب و الغرب/الجنوب الغربي
درجة الحرارة 13°درجة مئوية
الرطوبة 58%
ضغط 1011 hPa
الرؤية 10 كم أو أكثر
غيوم قليلة على ارتفاع 1600 قدم
غيوم متفرقة على ارتفاع 3000 قدم

METAR: GMFO 211330Z 20008KT 170V250 9999 FEW016 SCT030 13/05 Q1011 NOSIG

زمن: 14:58 (13:58 UTC)

توقعات

تاريخ ووقت الإصدار 2ساعات و 58 دقيقة قبل الساعة 11:00UTC
التوقعات صالحة من21 الساعة 12 UTC إلى 22 الساعة 18 UTC
ريح 11 عقدة من الجنوب
الرؤية 10 كم أو أكثر
غيوم قليلة على ارتفاع 2600 قدم

TAF: GMFO 211100Z 2112/2218 18011KT 9999 FEW026

أرصاد الطقس والتوقعات من أكثر من 4000 مطار (تقارير الطقس للمطار METAR والتنبؤ بالطقس بالمطارTAF).

المحطات المتاحة هي النقط الصفراء والحمراء على الخريطة.

حرك المؤشر فوق النقطة لمعرفة اسم المحطة.

ثم انقر لمعرفة أرصاد وتوقعات الطقس.

لتغيير الخارطة: اضغط على الأزرار الخضراء مع رمز الصليب الأسود للتكبير. على الزر الأخضر مع شرطة للتصغير، أو على الأسهم الخضراء للخرائط المجاورة.


METAR-TAF: